createdAt,value
2023-04-28T00:02:22.301Z,15.40
2023-04-28T00:04:50.702Z,15.40
2023-04-28T00:07:18.510Z,15.34
2023-04-28T00:09:47.708Z,15.73
2023-04-28T00:12:17.625Z,16.45
2023-04-28T00:14:45.605Z,14.34
2023-04-28T00:17:13.558Z,16.87
2023-04-28T00:19:41.429Z,15.02
2023-04-28T00:22:09.593Z,15.57
2023-04-28T00:24:37.454Z,16.21
2023-04-28T00:27:07.533Z,16.05
2023-04-28T00:29:35.447Z,15.53
2023-04-28T00:32:03.552Z,16.50
2023-04-28T00:34:34.357Z,15.47
2023-04-28T00:37:02.178Z,13.97
2023-04-28T00:39:29.980Z,15.58
2023-04-28T00:41:57.806Z,14.91
2023-04-28T00:44:27.184Z,14.89
2023-04-28T00:46:55.207Z,15.60
2023-04-28T00:49:23.085Z,16.31
2023-04-28T00:51:51.162Z,15.77
2023-04-28T00:54:19.258Z,15.04
2023-04-28T00:56:47.064Z,14.75
2023-04-28T00:59:23.036Z,15.61
2023-04-28T01:01:52.372Z,13.84
2023-04-28T01:04:21.517Z,14.68
2023-04-28T01:06:49.525Z,14.13
2023-04-28T01:09:17.202Z,15.73
2023-04-28T01:11:44.938Z,15.20
2023-04-28T01:14:12.665Z,15.51
2023-04-28T01:16:44.839Z,14.06
2023-04-28T01:19:18.383Z,15.90
2023-04-28T01:21:46.745Z,15.31
2023-04-28T01:24:16.605Z,14.48
2023-04-28T01:26:44.586Z,13.88
2023-04-28T01:29:12.278Z,16.26
2023-04-28T01:31:40.199Z,14.64
2023-04-28T01:34:08.048Z,15.90
2023-04-28T01:36:37.520Z,15.22
2023-04-28T01:39:05.963Z,14.46
2023-04-28T01:41:35.123Z,15.33
2023-04-28T01:44:03.950Z,15.07
2023-04-28T01:46:31.774Z,15.41
2023-04-28T01:48:59.560Z,15.67
2023-04-28T01:51:28.135Z,14.51
2023-04-28T01:53:55.905Z,15.69
2023-04-28T01:56:23.667Z,16.02
2023-04-28T01:58:52.888Z,13.98
2023-04-28T02:01:20.939Z,13.03
2023-04-28T02:03:49.221Z,14.11
2023-04-28T02:06:17.159Z,13.59
2023-04-28T02:08:44.952Z,13.45
2023-04-28T02:11:12.765Z,12.34
2023-04-28T02:13:40.825Z,12.85
2023-04-28T02:16:10.563Z,13.53
2023-04-28T02:18:38.527Z,14.64
2023-04-28T02:21:12.465Z,13.57
2023-04-28T02:23:40.432Z,15.25
2023-04-28T02:26:08.399Z,12.07
2023-04-28T02:28:36.432Z,13.28
2023-04-28T02:31:08.119Z,11.89
2023-04-28T02:33:43.794Z,14.46
2023-04-28T02:36:12.300Z,12.71
2023-04-28T02:38:41.605Z,14.46
2023-04-28T02:41:13.260Z,14.38
2023-04-28T02:43:41.115Z,15.13
2023-04-28T02:46:08.900Z,14.47
2023-04-28T02:48:37.345Z,12.48
2023-04-28T02:51:06.842Z,15.04
2023-04-28T02:53:49.528Z,15.04
2023-04-28T02:56:17.613Z,14.15
2023-04-28T02:58:45.339Z,14.01
2023-04-28T03:01:13.182Z,13.03
2023-04-28T03:03:41.280Z,13.92
2023-04-28T03:06:10.727Z,14.35
2023-04-28T03:08:38.405Z,13.63
2023-04-28T03:11:06.389Z,14.05
2023-04-28T03:13:35.905Z,13.83
2023-04-28T03:16:03.752Z,12.90
2023-04-28T03:18:31.603Z,13.29
2023-04-28T03:20:59.626Z,14.24
2023-04-28T03:23:28.798Z,13.02
2023-04-28T03:25:56.636Z,13.02
2023-04-28T03:28:24.870Z,13.97
2023-04-28T03:30:52.649Z,12.59
2023-04-28T03:33:20.457Z,13.54
2023-04-28T03:35:48.348Z,12.87
2023-04-28T03:38:16.403Z,14.54
2023-04-28T03:40:45.650Z,13.45
2023-04-28T03:43:17.284Z,13.12
2023-04-28T03:45:45.150Z,12.12
2023-04-28T03:48:13.037Z,13.63
2023-04-28T03:50:41.029Z,13.15
2023-04-28T03:53:08.724Z,12.53
2023-04-28T03:55:36.481Z,13.32
2023-04-28T03:58:05.700Z,14.62
2023-04-28T04:00:33.474Z,12.16
2023-04-28T04:03:01.922Z,13.75
2023-04-28T04:05:29.838Z,12.53
2023-04-28T04:07:58.057Z,13.83
2023-04-28T04:10:25.931Z,13.18
2023-04-28T04:12:53.990Z,12.46
2023-04-28T04:15:23.143Z,13.97
2023-04-28T04:18:02.883Z,12.66
2023-04-28T04:20:31.168Z,12.53
2023-04-28T04:23:04.818Z,12.63
2023-04-28T04:25:35.579Z,13.09
2023-04-28T04:28:08.414Z,11.97
2023-04-28T04:30:40.474Z,14.72
2023-04-28T04:33:08.241Z,12.77
2023-04-28T04:35:38.047Z,13.56
2023-04-28T04:38:07.428Z,13.67
2023-04-28T04:40:35.181Z,11.95
2023-04-28T04:43:07.579Z,13.32
2023-04-28T04:45:35.315Z,12.47
2023-04-28T04:48:05.149Z,14.28
2023-04-28T04:50:35.176Z,12.35
2023-04-28T04:53:02.935Z,13.02
2023-04-28T04:55:30.855Z,14.50
2023-04-28T04:57:58.649Z,15.25
2023-04-28T05:00:26.493Z,14.69
2023-04-28T05:02:54.330Z,14.39
2023-04-28T05:05:24.084Z,13.71
2023-04-28T05:07:51.918Z,14.89
2023-04-28T05:10:19.947Z,14.71
2023-04-28T05:12:49.187Z,14.82
2023-04-28T05:15:17.232Z,14.89
2023-04-28T05:17:45.203Z,14.95
2023-04-28T05:20:13.591Z,13.97
2023-04-28T05:22:43.087Z,14.83
2023-04-28T05:25:11.682Z,13.91
2023-04-28T05:27:41.233Z,15.86
2023-04-28T05:30:12.466Z,13.31
2023-04-28T05:32:40.669Z,15.28
2023-04-28T05:35:09.458Z,14.77
2023-04-28T05:37:38.512Z,15.28
2023-04-28T05:40:09.447Z,15.35
2023-04-28T05:42:37.344Z,13.19
2023-04-28T05:45:05.819Z,14.19
2023-04-28T05:47:33.734Z,15.19
2023-04-28T05:50:01.697Z,14.82
2023-04-28T05:52:29.510Z,16.22
2023-04-28T05:54:57.290Z,14.83
2023-04-28T05:57:26.504Z,14.91
2023-04-28T05:59:54.371Z,14.69
2023-04-28T06:02:23.762Z,15.62
2023-04-28T06:04:52.564Z,14.88
2023-04-28T06:07:20.843Z,15.44
2023-04-28T06:09:48.941Z,14.26
2023-04-28T06:12:16.817Z,14.32
2023-04-28T06:14:46.420Z,14.99
2023-04-28T06:17:14.228Z,15.51
2023-04-28T06:19:51.731Z,15.54
2023-04-28T06:22:19.657Z,14.85
2023-04-28T06:24:47.836Z,15.89
2023-04-28T06:27:15.790Z,15.83
2023-04-28T06:29:43.721Z,16.16
2023-04-28T06:32:13.205Z,15.80
2023-04-28T06:34:41.265Z,14.24
2023-04-28T06:37:09.088Z,15.34
2023-04-28T06:39:38.154Z,14.82
2023-04-28T06:42:06.473Z,15.28
2023-04-28T06:44:36.246Z,16.74
2023-04-28T06:47:04.642Z,16.38
2023-04-28T06:49:34.154Z,15.81
2023-04-28T06:52:02.027Z,17.54
2023-04-28T06:54:29.966Z,17.76
2023-04-28T06:57:01.152Z,17.75
2023-04-28T06:59:29.141Z,16.06
2023-04-28T07:01:58.809Z,17.24
2023-04-28T07:04:29.094Z,18.52
2023-04-28T07:06:58.733Z,16.30
2023-04-28T07:09:26.575Z,19.11
2023-04-28T07:11:55.182Z,18.45
2023-04-28T07:17:22.810Z,15.74
2023-04-28T07:19:51.183Z,18.15
2023-04-28T07:22:20.541Z,18.22
2023-04-28T07:24:48.241Z,18.42
2023-04-28T07:27:16.283Z,18.50
2023-04-28T07:29:44.242Z,18.28
2023-04-28T07:32:13.996Z,18.36
2023-04-28T07:34:41.872Z,17.78
2023-04-28T07:37:11.080Z,18.32
2023-04-28T07:39:41.743Z,18.29
2023-04-28T07:42:09.579Z,17.52
2023-04-28T07:44:49.610Z,17.84
2023-04-28T07:47:17.736Z,17.93
2023-04-28T07:49:48.747Z,18.59
2023-04-28T07:52:16.891Z,18.17
2023-04-28T07:54:46.706Z,18.65
2023-04-28T07:57:14.871Z,18.71
2023-04-28T07:59:42.599Z,18.72
2023-04-28T08:02:13.314Z,18.46
2023-04-28T08:04:41.119Z,18.86
2023-04-28T08:07:09.816Z,18.97
2023-04-28T08:09:37.464Z,18.90
2023-04-28T08:12:06.857Z,18.78
2023-04-28T08:14:34.643Z,18.83
2023-04-28T08:17:02.636Z,18.67
2023-04-28T08:19:30.463Z,18.82
2023-04-28T08:21:59.998Z,18.36
2023-04-28T08:24:30.303Z,18.76
2023-04-28T08:26:58.136Z,18.80
2023-04-28T08:29:27.252Z,18.87
2023-04-28T08:31:55.115Z,18.67
2023-04-28T08:34:23.113Z,19.08
2023-04-28T08:36:51.164Z,18.83
2023-04-28T08:39:19.677Z,19.24
2023-04-28T08:41:47.431Z,19.24
2023-04-28T08:44:15.545Z,19.18
2023-04-28T08:46:48.077Z,19.75
2023-04-28T08:49:17.075Z,19.38
2023-04-28T08:51:52.585Z,19.84
2023-04-28T08:54:26.584Z,19.85
2023-04-28T08:56:55.132Z,19.78
2023-04-28T08:59:22.820Z,19.73
2023-04-28T09:01:52.167Z,19.65
2023-04-28T09:04:20.814Z,19.26
2023-04-28T09:06:48.981Z,19.70
2023-04-28T09:09:21.165Z,19.83
2023-04-28T09:11:53.241Z,20.01
2023-04-28T09:14:22.058Z,20.04
2023-04-28T09:16:51.871Z,20.29
2023-04-28T09:19:19.753Z,20.20
2023-04-28T09:21:49.463Z,20.15
2023-04-28T09:24:33.488Z,20.13
2023-04-28T09:27:02.297Z,20.10
2023-04-28T09:29:30.341Z,20.07
2023-04-28T09:32:13.897Z,19.88
2023-04-28T09:34:46.470Z,19.64
2023-04-28T09:37:18.262Z,19.77
2023-04-28T09:39:46.396Z,19.73
2023-04-28T09:42:33.403Z,19.72
2023-04-28T09:45:02.895Z,19.49
2023-04-28T09:47:35.748Z,19.76
2023-04-28T09:50:05.211Z,19.50
2023-04-28T09:52:34.450Z,19.60
2023-04-28T09:55:03.179Z,20.17
2023-04-28T09:57:32.292Z,19.59
2023-04-28T10:00:00.197Z,20.04
2023-04-28T10:05:01.245Z,19.95
2023-04-28T10:07:30.779Z,20.84
2023-04-28T10:10:00.558Z,20.93
2023-04-28T10:12:28.666Z,20.49
2023-04-28T10:14:57.567Z,20.71
2023-04-28T10:17:27.451Z,20.63
2023-04-28T10:19:55.400Z,20.59
2023-04-28T10:22:48.682Z,20.21
2023-04-28T10:25:27.681Z,19.69
2023-04-28T10:27:55.638Z,20.45
2023-04-28T10:30:28.028Z,20.42
2023-04-28T10:33:24.730Z,20.45
2023-04-28T10:35:52.566Z,20.22
2023-04-28T10:38:21.940Z,19.92
2023-04-28T10:41:03.265Z,19.06
2023-04-28T10:43:39.814Z,19.87
2023-04-28T10:46:11.358Z,17.84
2023-04-28T10:49:05.912Z,19.68
2023-04-28T10:51:38.090Z,19.52
2023-04-28T10:54:15.792Z,18.89
2023-04-28T10:56:45.493Z,17.92
2023-04-28T10:59:26.213Z,19.01
2023-04-28T11:01:54.700Z,19.20
2023-04-28T11:04:24.314Z,19.51
2023-04-28T11:07:10.425Z,19.69
2023-04-28T11:09:52.518Z,19.73
2023-04-28T11:12:20.381Z,19.83
2023-04-28T11:14:48.128Z,19.83
2023-04-28T11:17:18.687Z,19.91
2023-04-28T11:19:48.599Z,20.01
2023-04-28T11:22:17.747Z,19.81
2023-04-28T11:24:58.687Z,19.21
2023-04-28T11:27:26.938Z,18.05
2023-04-28T11:29:55.674Z,20.21
2023-04-28T11:32:27.961Z,18.82
2023-04-28T11:34:55.831Z,20.29
2023-04-28T11:37:23.946Z,20.25
2023-04-28T11:39:51.854Z,20.26
2023-04-28T11:42:22.065Z,20.31
2023-04-28T11:44:53.672Z,20.07
2023-04-28T11:47:31.385Z,20.28
2023-04-28T11:49:59.174Z,20.81
2023-04-28T11:52:27.588Z,20.91
2023-04-28T11:54:56.515Z,20.90
2023-04-28T11:57:26.682Z,20.31
2023-04-28T11:59:54.532Z,20.69
2023-04-28T12:02:27.918Z,20.59
2023-04-28T12:04:56.102Z,20.81
2023-04-28T12:07:24.660Z,19.78
2023-04-28T12:10:14.222Z,21.04
2023-04-28T12:12:50.924Z,21.20
2023-04-28T12:15:21.061Z,21.06
2023-04-28T12:17:50.745Z,21.56
2023-04-28T12:20:39.795Z,21.73
2023-04-28T12:23:08.548Z,19.81
2023-04-28T12:25:44.807Z,21.55
2023-04-28T12:28:13.993Z,22.35
2023-04-28T12:30:44.139Z,22.31
2023-04-28T12:33:29.022Z,21.76
2023-04-28T12:35:57.510Z,22.51
2023-04-28T12:38:25.284Z,23.25
2023-04-28T12:40:53.045Z,23.66
2023-04-28T12:43:24.114Z,23.91
2023-04-28T12:45:53.157Z,23.21
2023-04-28T12:48:22.357Z,23.31
2023-04-28T12:50:50.181Z,23.90
2023-04-28T12:53:18.317Z,24.47
2023-04-28T12:55:46.088Z,24.22
2023-04-28T12:58:13.939Z,25.05
2023-04-28T13:00:45.100Z,25.17
2023-04-28T13:03:13.073Z,25.15
2023-04-28T13:05:40.974Z,25.02
2023-04-28T13:08:09.039Z,25.06
2023-04-28T13:10:37.138Z,24.92
2023-04-28T13:13:05.361Z,24.87
2023-04-28T13:15:33.431Z,24.82
2023-04-28T13:18:02.635Z,24.66
2023-04-28T13:20:30.656Z,24.98
2023-04-28T13:22:58.306Z,25.10
2023-04-28T13:25:28.078Z,25.26
2023-04-28T13:27:55.814Z,25.21
2023-04-28T13:30:25.751Z,25.12
2023-04-28T13:32:54.489Z,24.81
2023-04-28T13:35:26.249Z,25.18
2023-04-28T13:40:47.957Z,25.36
2023-04-28T13:43:17.777Z,25.26
2023-04-28T13:45:47.336Z,25.47
2023-04-28T13:48:25.400Z,25.49
2023-04-28T13:50:54.761Z,25.54
2023-04-28T13:53:23.917Z,24.69
2023-04-28T13:55:53.907Z,24.79
2023-04-28T13:58:22.272Z,25.62
2023-04-28T14:00:50.368Z,25.64
2023-04-28T14:03:18.634Z,25.37
2023-04-28T14:05:49.718Z,25.64
2023-04-28T14:08:20.754Z,25.55
2023-04-28T14:10:48.981Z,25.81
2023-04-28T14:13:16.698Z,25.82
2023-04-28T14:15:57.837Z,25.86
2023-04-28T14:18:27.727Z,25.85
2023-04-28T14:20:58.155Z,25.71
2023-04-28T14:23:29.409Z,25.14
2023-04-28T14:25:58.145Z,25.42
2023-04-28T14:28:27.058Z,24.61
2023-04-28T14:30:55.163Z,24.81
2023-04-28T14:33:25.864Z,25.23
2023-04-28T14:35:53.644Z,25.47
2023-04-28T14:38:21.737Z,25.28
2023-04-28T14:40:51.537Z,25.68
2023-04-28T14:43:19.275Z,25.45
2023-04-28T14:45:50.336Z,25.51
2023-04-28T14:48:18.286Z,25.35
2023-04-28T14:50:51.293Z,25.47
2023-04-28T14:53:18.945Z,25.10
2023-04-28T14:55:47.909Z,25.30
2023-04-28T14:58:17.916Z,25.43
2023-04-28T15:00:45.769Z,25.25
2023-04-28T15:03:14.500Z,25.30
2023-04-28T15:05:44.001Z,25.49
2023-04-28T15:08:12.000Z,25.12
2023-04-28T15:10:40.524Z,25.20
2023-04-28T15:13:08.661Z,24.59
2023-04-28T15:15:37.911Z,25.12
2023-04-28T15:18:05.597Z,24.81
2023-04-28T15:20:34.111Z,25.02
2023-04-28T15:23:01.862Z,24.88
2023-04-28T15:25:29.666Z,24.98
2023-04-28T15:27:57.362Z,24.96
2023-04-28T15:30:25.183Z,24.84
2023-04-28T15:32:54.542Z,24.74
2023-04-28T15:35:22.717Z,24.58
2023-04-28T15:37:52.100Z,24.14
2023-04-28T15:40:20.975Z,24.65
2023-04-28T15:42:51.568Z,24.49
2023-04-28T15:45:20.388Z,24.32
2023-04-28T15:47:49.290Z,23.98
2023-04-28T15:50:19.912Z,24.15
2023-04-28T15:52:49.528Z,23.64
2023-04-28T15:55:17.882Z,23.80
2023-04-28T15:57:47.549Z,23.35
2023-04-28T16:00:15.955Z,23.42
2023-04-28T16:02:43.931Z,23.32
2023-04-28T16:05:12.481Z,22.86
2023-04-28T16:07:41.721Z,23.27
2023-04-28T16:10:10.383Z,22.56
2023-04-28T16:12:40.128Z,23.19
2023-04-28T16:15:09.460Z,23.14
2023-04-28T16:17:38.095Z,23.10
2023-04-28T16:20:07.266Z,22.95
2023-04-28T16:22:35.950Z,22.37
2023-04-28T16:25:05.406Z,22.77
2023-04-28T16:27:33.233Z,22.88
2023-04-28T16:30:00.958Z,22.82
2023-04-28T16:32:28.832Z,22.25
2023-04-28T16:34:58.161Z,22.66
2023-04-28T16:37:26.088Z,22.59
2023-04-28T16:42:47.417Z,20.14
2023-04-28T16:45:17.517Z,22.36
2023-04-28T16:48:07.433Z,22.26
2023-04-28T16:56:35.446Z,21.33
2023-04-28T17:02:16.152Z,20.91
2023-04-28T17:04:51.727Z,21.91
2023-04-28T17:07:46.518Z,21.87
2023-04-28T17:10:43.569Z,21.84
2023-04-28T17:31:40.360Z,20.69
2023-04-28T18:12:20.821Z,20.58
2023-04-28T18:14:50.511Z,17.98
2023-04-28T18:17:27.999Z,17.97
2023-04-28T18:20:05.763Z,19.06
2023-04-28T18:23:53.661Z,17.49
2023-04-28T18:26:22.272Z,16.92
2023-04-28T18:28:51.511Z,18.53
2023-04-28T18:32:12.145Z,20.44
2023-04-28T18:34:49.486Z,18.34
2023-04-28T18:37:24.873Z,18.68
2023-04-28T18:51:19.121Z,20.08
2023-04-28T19:01:39.191Z,18.80
2023-04-28T19:04:20.450Z,17.38
2023-04-28T19:40:01.047Z,17.13
2023-04-28T19:42:30.481Z,18.97
2023-04-28T19:44:59.245Z,17.15
2023-04-28T19:47:29.755Z,19.51
2023-04-28T19:49:57.752Z,17.23
2023-04-28T19:52:30.008Z,19.67
2023-04-28T19:55:00.714Z,18.52
2023-04-28T19:57:30.030Z,18.36
2023-04-28T20:00:01.058Z,19.62
2023-04-28T20:02:29.660Z,19.14
2023-04-28T20:04:58.657Z,16.61
2023-04-28T20:07:26.602Z,17.30
2023-04-28T20:09:56.330Z,18.91
2023-04-28T20:12:24.210Z,17.11
2023-04-28T20:14:53.713Z,18.84
2023-04-28T20:17:21.677Z,19.49
2023-04-28T20:19:49.717Z,16.82
2023-04-28T20:22:20.955Z,17.88
2023-04-28T20:24:49.044Z,17.81
2023-04-28T20:27:17.034Z,19.42
2023-04-28T20:29:45.202Z,17.00
2023-04-28T20:32:14.493Z,17.85
2023-04-28T20:34:43.218Z,18.16
2023-04-28T20:37:11.767Z,17.84
2023-04-28T20:39:39.677Z,18.71
2023-04-28T20:42:07.616Z,19.23
2023-04-28T20:44:35.840Z,18.52
2023-04-28T20:47:03.940Z,18.41
2023-04-28T20:49:33.356Z,18.06
2023-04-28T20:52:04.800Z,18.16
2023-04-28T20:54:33.618Z,17.20
2023-04-28T20:57:01.884Z,17.79
2023-04-28T20:59:32.258Z,18.48
2023-04-28T21:02:01.579Z,18.09
2023-04-28T21:04:29.494Z,18.81
2023-04-28T21:06:58.866Z,17.31
2023-04-28T21:09:26.860Z,18.15
2023-04-28T21:11:55.043Z,17.94
2023-04-28T21:14:39.088Z,18.06
2023-04-28T21:17:07.129Z,17.11
2023-04-28T21:19:35.162Z,17.24
2023-04-28T21:22:06.489Z,19.08
2023-04-28T21:24:34.373Z,17.81
2023-04-28T21:27:02.916Z,19.10
2023-04-28T21:29:32.225Z,18.95
2023-04-28T21:32:00.184Z,18.74
2023-04-28T21:34:29.456Z,18.46
2023-04-28T21:36:58.720Z,17.81
2023-04-28T21:39:27.898Z,16.98
2023-04-28T21:41:55.891Z,18.84
2023-04-28T21:44:24.454Z,18.01
2023-04-28T21:46:52.691Z,16.05
2023-04-28T21:49:20.848Z,17.30
2023-04-28T21:51:48.751Z,15.77
2023-04-28T21:54:17.090Z,17.03
2023-04-28T21:56:46.552Z,16.61
2023-04-28T21:59:14.462Z,18.60
2023-04-28T22:01:42.792Z,17.73
2023-04-28T22:04:10.932Z,16.18
2023-04-28T22:06:39.122Z,17.42
2023-04-28T22:09:07.327Z,17.30
2023-04-28T22:11:35.138Z,17.73
2023-04-28T22:14:04.970Z,16.29
2023-04-28T22:16:32.910Z,17.73
2023-04-28T22:19:02.307Z,17.55
2023-04-28T22:21:30.171Z,17.69
2023-04-28T22:23:58.316Z,18.37
2023-04-28T22:26:26.070Z,16.31
2023-04-28T22:28:54.760Z,16.53
2023-04-28T22:31:24.126Z,16.31
2023-04-28T22:33:53.396Z,17.59
2023-04-28T22:36:21.834Z,16.85
2023-04-28T22:38:50.197Z,16.60
2023-04-28T22:41:19.203Z,15.96
